Davenport, IA

11:55 PM CST on December 17, 2014 (GMT -0600)
Southeast Davenport | Change Station
CLOSE
Current Station
Personal Weather Station
Location: Davenport, IA
Elevation: 659 ft
Nearby Weather Stations

Elev 659 ft 41.54 °N, 90.56 °W | Updated 36 seconds ago

Partly Cloudy
Partly Cloudy
18.7 °F
Feels Like 19 °F
N
0.0
Wind Variable Wind from West
Gusts 0.0 mph

Today
High -- | Low -- °F
--% Chance of Precip.
Yesterday
High -- | Low -- °F
Precip. -- in
7:23 AM 4:33 PM
Waning Crescent, 17% visible
Pressure 30.34 in
Visibility 10.0 miles
Clouds Clear
Windchill 19 °F
Dew Point 13 °F
Humidity 77%
Rainfall 0.00 in
Snow Depth Not available.
UV 0 out of 12
Pollen .10 out of 12
Air Quality Not available.
Flu Activity Not available.
METAR KDVN 180452Z AUTO 02003KT 10SM CLR M08/M11 A3030 RMK AO2 SLP274 T10831111

More Conditions Fewer Conditions

Pressure 30.34 in
Visibility 10.0 miles
Clouds Clear
Windchill 19 °F
Dew Point 13 °F
Humidity 77%
Rainfall 0.00 in
Snow Depth Not available.
UV 0 out of 12
Pollen .10 out of 12
Air Quality Not available.
Flu Activity Not available.
METAR KDVN 180452Z AUTO 02003KT 10SM CLR M08/M11 A3030 RMK AO2 SLP274 T10831111

More Conditions Fewer Conditions

10-Day Weather Forecast

Almanac

Astronomy

Dec. 17, 2014 Rise Set
Actual Time
Civil Twilight
Nautical Twilight
Astronomical Twilight
Moon
Length of Visible Light
Length of Day
Tomorrow will be .
, % of the Moon is Illuminated

Today's Extremes

State Highs State Lows

Community

WunderPhotos

Upload Photos

1,778,896 photos uploaded!

WunderBlogs® & News

Nearby

Air Quality

  Air Quality AQ Index Pollutant
Not available.

Snow Depth

Station Depth Elevation

Earthquake Activity

City Distance Mag. Time & Date
Minimum magnitude displayed is 2.5.

Coastal Water Temperatures

Place Temperature

Nearby Weather Stations